Time;durP1;ratioP1;P1;durP2;ratioP2;P2;SDS_P1;SDS_P2;PMS_P1;PMS_P2;Temp;Humidity;BMP_temperature;BMP_pressure;BME280_temperature;BME280_humidity;BME280_pressure;Samples;Min_cycle;Max_cycle;Signal;HPM_P1;HPM_P2
2022/05/17 00:01:23;;;;;;;28.98;11.25;;;14.60;99.90;;;;;;4979889;28;20061;-87
2022/05/17 00:03:49;;;;;;;29.63;12.77;;;14.60;99.90;;;;;;4983978;28;20113;-83
2022/05/17 00:06:16;;;;;;;23.73;10.70;;;14.60;99.90;;;;;;5008850;28;20506;-86
2022/05/17 00:08:42;;;;;;;30.15;10.50;;;14.60;99.90;;;;;;4982501;28;20093;-81
2022/05/17 00:11:10;;;;;;;31.98;10.40;;;14.60;99.90;;;;;;4998483;28;20486;-86
2022/05/17 00:13:36;;;;;;;32.38;13.10;;;14.50;99.90;;;;;;4998508;28;20137;-84
2022/05/17 00:16:02;;;;;;;24.92;11.35;;;14.50;99.90;;;;;;4997961;28;20578;-82
2022/05/17 00:18:29;;;;;;;29.05;10.90;;;14.50;99.90;;;;;;4985348;28;20145;-85
2022/05/17 00:20:56;;;;;;;25.55;10.63;;;14.50;99.90;;;;;;4998428;28;20505;-84
2022/05/17 00:23:22;;;;;;;29.90;11.70;;;14.40;99.90;;;;;;4984296;28;20054;-85
2022/05/17 00:25:48;;;;;;;24.50;10.93;;;14.40;99.90;;;;;;4982155;28;20129;-84
2022/05/17 00:28:16;;;;;;;30.35;11.52;;;14.40;99.90;;;;;;4999206;28;20491;-82
2022/05/17 00:30:42;;;;;;;31.08;11.75;;;14.40;99.90;;;;;;4981442;28;20112;-83
2022/05/17 00:33:08;;;;;;;31.52;11.25;;;14.40;99.90;;;;;;4980798;28;20086;-81
2022/05/17 00:35:35;;;;;;;33.97;10.88;;;14.40;99.90;;;;;;4999016;28;20532;-81
2022/05/17 00:38:02;;;;;;;29.88;10.93;;;14.40;99.90;;;;;;4982925;28;20054;-80
2022/05/17 00:40:28;;;;;;;32.80;13.07;;;14.30;99.90;;;;;;4976981;28;20050;-80
2022/05/17 00:42:54;;;;;;;28.00;11.27;;;14.30;99.90;;;;;;4977833;28;20050;-82
2022/05/17 00:45:20;;;;;;;30.75;11.30;;;14.30;99.90;;;;;;4993143;28;20427;-81
2022/05/17 00:47:51;;;;;;;33.78;12.32;;;14.30;99.90;;;;;;4976569;28;20054;-81
2022/05/17 00:50:25;;;;;;;28.30;12.38;;;14.20;99.90;;;;;;4994489;28;20054;-81
2022/05/17 00:52:54;;;;;;;32.80;12.63;;;14.20;99.90;;;;;;4997041;28;20050;-85
2022/05/17 00:55:24;;;;;;;30.85;12.45;;;14.20;99.90;;;;;;4964539;28;20181;-81
2022/05/17 00:57:55;;;;;;;26.20;11.27;;;14.20;99.90;;;;;;4994927;28;20115;-83
2022/05/17 01:00:22;;;;;;;33.97;12.27;;;14.20;99.90;;;;;;4994774;28;20449;-84
2022/05/17 01:03:03;;;;;;;28.73;12.70;;;14.20;99.90;;;;;;4976181;28;20062;-82
2022/05/17 01:05:34;;;;;;;28.30;11.05;;;14.20;99.90;;;;;;4994201;28;20489;-86
2022/05/17 01:08:01;;;;;;;27.02;12.20;;;14.10;99.90;;;;;;4976768;28;20115;-86
2022/05/17 01:10:29;;;;;;;29.58;11.93;;;14.10;99.90;;;;;;4995390;28;20045;-85
2022/05/17 01:15:42;;;;;;;31.42;11.68;;;14.10;99.90;;;;;;4995044;28;20042;-85
2022/05/17 01:18:07;;;;;;;30.25;10.82;;;14.00;99.90;;;;;;4976789;28;20502;-86
2022/05/17 01:20:34;;;;;;;30.75;12.15;;;14.10;99.90;;;;;;4976663;28;20061;-85
2022/05/17 01:23:00;;;;;;;33.15;12.32;;;14.00;99.90;;;;;;4976493;28;20053;-85
2022/05/17 01:25:28;;;;;;;28.25;10.98;;;14.00;99.90;;;;;;4994309;28;20431;-85
2022/05/17 01:28:15;;;;;;;29.90;11.43;;;14.00;99.90;;;;;;4997901;28;20061;-81
2022/05/17 01:30:41;;;;;;;28.00;11.25;;;14.00;99.90;;;;;;4977848;28;20517;-86
2022/05/17 01:33:13;;;;;;;30.52;11.30;;;14.00;99.90;;;;;;4979675;28;20232;-86
2022/05/17 01:35:39;;;;;;;35.65;13.35;;;14.00;99.90;;;;;;4994009;28;20081;-86
2022/05/17 01:38:05;;;;;;;34.30;10.35;;;14.00;99.90;;;;;;4976278;28;20061;-84
2022/05/17 01:40:32;;;;;;;33.65;10.88;;;14.00;99.90;;;;;;4993395;28;20129;-85
2022/05/17 01:42:58;;;;;;;31.67;11.85;;;13.90;99.90;;;;;;4975684;28;20165;-85
2022/05/17 01:45:24;;;;;;;37.75;11.57;;;13.90;99.90;;;;;;4961412;28;20046;-81
2022/05/17 01:47:49;;;;;;;32.85;11.38;;;13.90;99.90;;;;;;4977754;28;20056;-81
2022/05/17 01:50:16;;;;;;;29.92;11.45;;;13.90;99.90;;;;;;4978221;28;20042;-85
2022/05/17 01:52:42;;;;;;;29.92;11.57;;;13.90;99.90;;;;;;4993210;28;20050;-84
2022/05/17 01:55:08;;;;;;;26.40;11.60;;;13.80;99.90;;;;;;4975814;28;20112;-84
2022/05/17 01:57:34;;;;;;;30.38;10.55;;;13.80;99.90;;;;;;4992808;28;20423;-82
2022/05/17 02:00:00;;;;;;;37.05;12.88;;;13.80;99.90;;;;;;4976720;28;20042;-80
2022/05/17 02:02:25;;;;;;;30.63;11.15;;;13.80;99.90;;;;;;4997215;28;20407;-84
2022/05/17 02:04:51;;;;;;;29.02;12.18;;;13.80;99.90;;;;;;4961735;28;20494;-86
2022/05/17 02:07:17;;;;;;;24.23;11.13;;;13.80;99.90;;;;;;4993163;28;20054;-83
2022/05/17 02:09:43;;;;;;;33.90;12.07;;;13.80;99.90;;;;;;4976722;28;20069;-83
2022/05/17 02:12:10;;;;;;;35.40;12.32;;;13.70;99.90;;;;;;4976210;28;20051;-78
2022/05/17 02:14:36;;;;;;;34.30;11.50;;;13.70;99.90;;;;;;4992884;28;20086;-79
2022/05/17 02:17:02;;;;;;;29.58;12.27;;;13.70;99.90;;;;;;4994748;28;20181;-78
2022/05/17 02:19:30;;;;;;;25.30;11.43;;;13.70;99.90;;;;;;4979966;28;20073;-81
2022/05/17 02:21:56;;;;;;;30.38;12.27;;;13.70;99.90;;;;;;4977032;28;20189;-84
2022/05/17 02:24:22;;;;;;;28.90;10.75;;;13.70;99.90;;;;;;4975105;28;20173;-80
2022/05/17 02:26:48;;;;;;;29.30;11.18;;;13.60;99.90;;;;;;4991380;28;20050;-79
2022/05/17 02:29:15;;;;;;;28.85;12.95;;;13.60;99.90;;;;;;4993055;28;20054;-83
2022/05/17 02:31:40;;;;;;;36.05;12.02;;;13.60;99.90;;;;;;4976770;28;20046;-83
2022/05/17 02:34:06;;;;;;;26.92;11.93;;;13.60;99.90;;;;;;4979000;28;20061;-82
2022/05/17 02:36:32;;;;;;;36.92;12.50;;;13.60;99.90;;;;;;4999381;28;20049;-81
2022/05/17 02:38:58;;;;;;;30.15;11.82;;;13.60;99.90;;;;;;4976670;28;20061;-77
2022/05/17 02:41:24;;;;;;;32.25;12.35;;;13.60;99.90;;;;;;4992336;28;20059;-79
2022/05/17 02:43:50;;;;;;;29.65;13.02;;;13.60;99.90;;;;;;4992243;28;20080;-79
2022/05/17 02:46:16;;;;;;;29.15;12.63;;;13.50;99.90;;;;;;4994922;28;20485;-79
2022/05/17 02:48:42;;;;;;;30.42;11.32;;;13.60;99.90;;;;;;4958702;28;20058;-83
2022/05/17 02:51:11;;;;;;;26.98;12.32;;;13.50;99.90;;;;;;4992848;28;20129;-77
2022/05/17 02:53:37;;;;;;;28.90;12.40;;;13.50;99.90;;;;;;4975933;28;20054;-78
2022/05/17 02:56:03;;;;;;;25.80;10.32;;;13.50;99.90;;;;;;4992253;28;20082;-79
2022/05/17 02:58:29;;;;;;;32.63;12.35;;;13.50;99.90;;;;;;4991804;28;20050;-78
2022/05/17 03:00:55;;;;;;;31.33;12.15;;;13.50;99.90;;;;;;4991296;28;20525;-81
2022/05/17 03:03:22;;;;;;;30.83;11.30;;;13.50;99.90;;;;;;4994875;28;20510;-78
2022/05/17 03:05:48;;;;;;;31.42;11.25;;;13.40;99.90;;;;;;4974649;28;20407;-78
2022/05/17 03:08:14;;;;;;;29.45;12.00;;;13.40;99.90;;;;;;4974330;28;20058;-80
2022/05/17 03:10:40;;;;;;;31.50;11.80;;;13.40;99.90;;;;;;4975299;28;20050;-80
2022/05/17 03:13:08;;;;;;;32.65;12.15;;;13.40;99.90;;;;;;4978425;28;20061;-80
2022/05/17 03:15:34;;;;;;;36.78;12.55;;;13.40;99.90;;;;;;4974299;28;20069;-81
2022/05/17 03:18:00;;;;;;;27.70;11.32;;;13.40;99.90;;;;;;4993186;28;20058;-82
2022/05/17 03:20:26;;;;;;;36.88;11.90;;;13.40;99.90;;;;;;4997501;28;20050;-83
2022/05/17 03:22:51;;;;;;;28.35;11.00;;;13.30;99.90;;;;;;4974178;28;20165;-81
2022/05/17 03:25:17;;;;;;;34.15;12.70;;;13.30;99.90;;;;;;4992204;28;20050;-82
2022/05/17 03:27:43;;;;;;;26.92;10.32;;;13.30;99.90;;;;;;4974883;28;20062;-78
2022/05/17 03:30:10;;;;;;;25.10;11.05;;;13.30;99.90;;;;;;4978955;28;20137;-78
2022/05/17 03:32:35;;;;;;;28.35;10.68;;;13.30;99.90;;;;;;4975971;28;20094;-84
2022/05/17 03:35:02;;;;;;;25.58;11.05;;;13.30;99.90;;;;;;4994312;28;20472;-79
2022/05/17 03:37:28;;;;;;;27.55;9.50;;;13.30;99.90;;;;;;4980604;28;20514;-81
2022/05/17 03:39:53;;;;;;;25.25;10.60;;;13.30;99.90;;;;;;4991849;28;20051;-80
2022/05/17 03:42:19;;;;;;;33.30;10.38;;;13.30;99.90;;;;;;4991556;28;20054;-83
2022/05/17 03:44:45;;;;;;;27.25;10.35;;;13.30;99.90;;;;;;4991674;28;20050;-82
2022/05/17 03:47:11;;;;;;;28.80;10.18;;;13.30;99.90;;;;;;4979710;28;20118;-80
2022/05/17 03:49:38;;;;;;;32.25;10.38;;;13.30;99.90;;;;;;4975865;28;20047;-82
2022/05/17 03:52:06;;;;;;;29.95;10.68;;;13.40;99.90;;;;;;4963741;28;20061;-80
2022/05/17 03:54:32;;;;;;;27.27;10.95;;;13.30;99.90;;;;;;4958141;28;20464;-81
2022/05/17 03:56:58;;;;;;;29.27;10.98;;;13.40;99.90;;;;;;4991907;28;20050;-77
2022/05/17 03:59:24;;;;;;;22.33;10.10;;;13.40;99.90;;;;;;4973804;28;20056;-80
2022/05/17 04:01:50;;;;;;;26.30;10.75;;;13.40;99.90;;;;;;4974007;28;20133;-83
2022/05/17 04:04:16;;;;;;;33.92;10.38;;;13.40;99.90;;;;;;4991582;28;20581;-83
2022/05/17 04:06:43;;;;;;;25.52;10.15;;;13.40;99.90;;;;;;4993615;28;20140;-80
2022/05/17 04:09:10;;;;;;;27.23;9.43;;;13.50;99.90;;;;;;4977256;28;20128;-84
2022/05/17 04:11:36;;;;;;;23.38;9.55;;;13.50;99.90;;;;;;4974357;28;20042;-84
2022/05/17 04:14:03;;;;;;;34.80;10.95;;;13.50;99.90;;;;;;4974862;28;20062;-80
2022/05/17 04:16:33;;;;;;;30.17;9.30;;;13.60;99.90;;;;;;4995223;28;20520;-85
2022/05/17 04:19:00;;;;;;;21.30;8.65;;;13.60;99.90;;;;;;4995187;28;20450;-79
2022/05/17 04:21:26;;;;;;;22.10;8.50;;;13.70;99.90;;;;;;4996641;28;20086;-83
2022/05/17 04:23:52;;;;;;;20.90;8.63;;;13.80;99.90;;;;;;5000963;28;20128;-81
2022/05/17 04:26:19;;;;;;;28.67;8.30;;;13.90;99.90;;;;;;4997021;28;20046;-80
2022/05/17 04:28:44;;;;;;;22.35;8.45;;;13.90;99.90;;;;;;4977857;28;20081;-81
2022/05/17 04:31:11;;;;;;;19.17;7.10;;;14.00;99.90;;;;;;4995048;28;20485;-84
2022/05/17 04:33:36;;;;;;;21.42;7.82;;;14.10;99.90;;;;;;4977521;28;20089;-85
2022/05/17 04:36:02;;;;;;;26.45;8.02;;;14.20;99.90;;;;;;4996930;28;20074;-83
2022/05/17 04:38:28;;;;;;;20.23;7.18;;;14.30;99.90;;;;;;4995221;28;20557;-84
2022/05/17 04:40:54;;;;;;;24.17;7.97;;;14.30;99.90;;;;;;5001788;28;20043;-78
2022/05/17 04:43:20;;;;;;;28.63;7.80;;;14.40;99.90;;;;;;4983680;28;20053;-82
2022/05/17 04:45:46;;;;;;;24.08;6.78;;;14.40;99.90;;;;;;4977744;28;20483;-83
2022/05/17 04:48:12;;;;;;;24.90;7.55;;;14.40;99.90;;;;;;4995154;28;20847;-84
2022/05/17 04:50:38;;;;;;;30.30;8.30;;;14.50;99.90;;;;;;4997201;28;20483;-81
2022/05/17 04:53:04;;;;;;;24.45;7.43;;;14.60;99.90;;;;;;4963905;28;20046;-85
2022/05/17 04:55:30;;;;;;;20.02;7.20;;;14.60;99.90;;;;;;4982584;28;20108;-79
2022/05/17 04:57:56;;;;;;;25.65;7.22;;;14.70;99.90;;;;;;5007779;28;20077;-81
2022/05/17 05:00:26;;;;;;;19.38;6.85;;;14.70;99.90;;;;;;4980168;28;20391;-83
2022/05/17 05:02:53;;;;;;;19.35;7.40;;;14.70;99.90;;;;;;4982365;28;20117;-81
2022/05/17 05:05:20;;;;;;;25.83;7.90;;;14.80;99.90;;;;;;4973989;28;20065;-83
2022/05/17 05:07:46;;;;;;;24.20;8.07;;;14.80;99.90;;;;;;4975717;28;20114;-85
2022/05/17 05:10:13;;;;;;;24.13;8.70;;;14.90;99.90;;;;;;4977269;28;20085;-81
2022/05/17 05:12:39;;;;;;;22.23;7.18;;;14.90;99.90;;;;;;4979686;28;20057;-82
2022/05/17 05:15:06;;;;;;;21.25;5.90;;;14.90;99.90;;;;;;4974149;28;20114;-81
2022/05/17 05:17:33;;;;;;;17.90;6.63;;;15.00;99.90;;;;;;4974630;28;20134;-80
2022/05/17 05:19:59;;;;;;;24.08;7.47;;;15.00;99.90;;;;;;4973718;28;20058;-78
2022/05/17 05:22:26;;;;;;;21.48;6.40;;;15.10;99.90;;;;;;4974370;28;20065;-84
2022/05/17 05:24:52;;;;;;;20.10;7.00;;;15.10;99.90;;;;;;4974955;28;20546;-80
2022/05/17 05:27:18;;;;;;;20.85;5.78;;;15.10;99.90;;;;;;4977281;28;20047;-84
2022/05/17 05:29:44;;;;;;;25.85;6.53;;;15.20;99.90;;;;;;4974876;28;20058;-81
2022/05/17 05:32:10;;;;;;;20.92;6.70;;;15.30;99.90;;;;;;4973353;28;20410;-81
2022/05/17 05:34:36;;;;;;;17.80;6.35;;;15.40;99.90;;;;;;4974210;28;20063;-80
2022/05/17 05:37:03;;;;;;;19.77;6.97;;;15.50;99.90;;;;;;4973285;28;20586;-82
2022/05/17 05:39:29;;;;;;;21.45;7.20;;;15.60;99.90;;;;;;4973903;28;20384;-83
2022/05/17 05:41:55;;;;;;;16.77;5.97;;;15.70;99.90;;;;;;4991837;28;20070;-83
2022/05/17 05:44:21;;;;;;;17.70;6.40;;;15.70;99.90;;;;;;4979908;28;20479;-79
2022/05/17 05:46:47;;;;;;;20.20;6.07;;;15.80;99.90;;;;;;4974462;28;20051;-80
2022/05/17 05:49:13;;;;;;;23.67;6.10;;;15.80;99.90;;;;;;4975226;28;20061;-82
2022/05/17 05:51:40;;;;;;;32.50;7.57;;;15.80;99.90;;;;;;4973113;28;20062;-83
2022/05/17 05:54:06;;;;;;;22.20;7.38;;;15.80;99.90;;;;;;4990090;28;20054;-80
2022/05/17 05:56:32;;;;;;;20.50;6.72;;;15.90;99.90;;;;;;4973893;28;20566;-81
2022/05/17 05:58:58;;;;;;;23.90;5.85;;;15.90;99.90;;;;;;4977040;28;20054;-78
2022/05/17 06:01:26;;;;;;;24.67;6.18;;;16.00;99.90;;;;;;4977849;28;20125;-81
2022/05/17 06:03:53;;;;;;;20.10;5.43;;;16.00;99.90;;;;;;4957146;28;20105;-82
2022/05/17 06:06:19;;;;;;;14.55;6.50;;;16.10;99.90;;;;;;4973118;28;20101;-82
2022/05/17 06:08:45;;;;;;;18.33;6.05;;;16.20;99.90;;;;;;4974241;28;20180;-80
2022/05/17 06:11:10;;;;;;;18.45;5.55;;;16.30;99.90;;;;;;4973412;28;20487;-79
2022/05/17 06:13:37;;;;;;;22.35;6.57;;;16.50;99.90;;;;;;4974653;28;20065;-84
2022/05/17 06:16:03;;;;;;;15.80;5.22;;;16.70;99.90;;;;;;4976664;28;20046;-82
2022/05/17 06:18:29;;;;;;;17.80;5.85;;;16.80;99.90;;;;;;4975312;28;20059;-80
2022/05/17 06:20:56;;;;;;;21.73;5.07;;;17.00;99.90;;;;;;4974286;28;20047;-83
2022/05/17 06:23:23;;;;;;;21.83;5.00;;;17.20;99.90;;;;;;4975909;28;20061;-81
2022/05/17 06:25:50;;;;;;;16.95;4.20;;;17.30;99.90;;;;;;4973782;28;20050;-81
2022/05/17 06:28:16;;;;;;;15.88;4.65;;;17.40;99.90;;;;;;4973621;28;20058;-79
2022/05/17 06:30:42;;;;;;;17.77;5.43;;;17.50;99.90;;;;;;4975493;28;20051;-81
2022/05/17 06:33:09;;;;;;;22.55;4.95;;;17.60;99.90;;;;;;4978945;28;20079;-80
2022/05/17 06:35:37;;;;;;;18.42;4.75;;;17.70;99.90;;;;;;4975249;28;20076;-83
2022/05/17 06:38:04;;;;;;;22.52;5.18;;;17.70;99.90;;;;;;4974035;28;20114;-85
2022/05/17 06:40:31;;;;;;;18.60;4.45;;;17.80;99.90;;;;;;4973339;28;20158;-83
2022/05/17 06:42:57;;;;;;;17.60;4.32;;;17.80;99.90;;;;;;4973027;28;20057;-81
2022/05/17 06:45:23;;;;;;;18.08;5.20;;;17.90;99.90;;;;;;4972856;28;20137;-81
2022/05/17 06:47:49;;;;;;;15.23;4.28;;;17.80;99.90;;;;;;4973767;28;20418;-84
2022/05/17 06:50:15;;;;;;;21.77;4.75;;;18.00;99.90;;;;;;4975251;28;20566;-80
2022/05/17 06:52:41;;;;;;;21.77;4.55;;;18.10;99.90;;;;;;4972937;28;20043;-84
2022/05/17 06:55:07;;;;;;;17.02;4.07;;;18.20;99.90;;;;;;4973430;28;20149;-82
2022/05/17 06:57:33;;;;;;;15.50;3.67;;;18.30;99.90;;;;;;4972459;28;20058;-86
2022/05/17 06:59:59;;;;;;;14.32;2.90;;;18.30;99.90;;;;;;4959348;28;20054;-85
2022/05/17 07:02:25;;;;;;;14.45;4.55;;;18.30;99.90;;;;;;4987681;28;20058;-80
2022/05/17 07:04:51;;;;;;;17.25;3.63;;;18.40;99.90;;;;;;4977923;28;20503;-85
2022/05/17 07:07:17;;;;;;;19.23;4.20;;;18.40;99.90;;;;;;4992219;28;20879;-81
2022/05/17 07:13:07;;;;;;;15.48;3.65;;;18.50;99.90;;;;;;4993019;28;20066;-84
2022/05/17 07:15:13;;;;;;;17.10;3.90;;;18.70;99.90;;;;;;4992200;28;20046;-82
2022/05/17 07:17:38;;;;;;;17.27;4.45;;;18.90;99.90;;;;;;4978953;28;20046;-83
2022/05/17 07:20:05;;;;;;;14.35;3.63;;;19.00;99.90;;;;;;4976769;28;20050;-85
2022/05/17 07:22:31;;;;;;;13.82;3.72;;;19.20;99.90;;;;;;4992031;28;20050;-85
2022/05/17 07:24:56;;;;;;;17.65;4.18;;;19.40;99.90;;;;;;4991058;28;20054;-81
2022/05/17 07:27:22;;;;;;;20.27;4.93;;;19.40;99.90;;;;;;4990822;28;20525;-81
2022/05/17 07:29:49;;;;;;;17.35;4.65;;;19.40;99.90;;;;;;4991820;28;20061;-81
2022/05/17 07:32:14;;;;;;;16.58;3.70;;;19.50;99.90;;;;;;4992177;28;20058;-83
2022/05/17 07:34:41;;;;;;;18.00;3.47;;;19.60;99.90;;;;;;4996884;28;20081;-84
2022/05/17 07:37:07;;;;;;;13.40;3.63;;;19.60;99.90;;;;;;4997827;28;20058;-83
2022/05/17 07:39:33;;;;;;;12.18;3.55;;;19.70;99.90;;;;;;4991945;28;20039;-85
2022/05/17 07:41:59;;;;;;;13.52;4.07;;;19.90;99.90;;;;;;4958596;28;20073;-82
2022/05/17 07:44:25;;;;;;;14.43;3.70;;;19.90;99.90;;;;;;4974313;28;20062;-81
2022/05/17 07:46:51;;;;;;;16.85;3.97;;;20.00;99.90;;;;;;4974499;28;20078;-81
2022/05/17 07:49:17;;;;;;;17.40;3.50;;;20.10;99.90;;;;;;4977446;28;20100;-82
2022/05/17 07:51:42;;;;;;;15.45;4.40;;;20.30;99.90;;;;;;4980855;28;20086;-82
2022/05/17 07:54:08;;;;;;;14.38;3.28;;;20.50;99.90;;;;;;4996897;28;20089;-82
2022/05/17 07:56:34;;;;;;;16.92;2.97;;;20.50;99.90;;;;;;4995941;28;20513;-82
2022/05/17 07:59:00;;;;;;;15.30;3.42;;;20.50;99.90;;;;;;4995542;28;20054;-81
2022/05/17 08:01:25;;;;;;;11.77;2.70;;;20.50;99.90;;;;;;4974613;28;20047;-81
2022/05/17 08:03:51;;;;;;;12.18;2.55;;;20.50;99.90;;;;;;4976302;28;20055;-83
2022/05/17 08:06:18;;;;;;;14.43;2.90;;;20.60;99.90;;;;;;4975991;28;20058;-84
2022/05/17 08:08:44;;;;;;;10.15;3.42;;;20.50;99.90;;;;;;4979315;28;20051;-82
2022/05/17 08:11:10;;;;;;;11.00;3.28;;;20.60;99.90;;;;;;4981169;28;20380;-85
2022/05/17 08:13:36;;;;;;;10.60;2.40;;;20.90;99.90;;;;;;4975930;28;20055;-84
2022/05/17 08:16:03;;;;;;;11.85;2.92;;;21.00;99.90;;;;;;4974732;28;20051;-87
2022/05/17 08:18:29;;;;;;;12.32;2.95;;;21.10;99.90;;;;;;4975631;28;20105;-83
2022/05/17 08:20:55;;;;;;;11.38;2.85;;;21.10;99.90;;;;;;4974143;28;20047;-85
2022/05/17 08:23:21;;;;;;;12.98;3.40;;;21.20;99.90;;;;;;4975219;28;20047;-84
2022/05/17 08:28:31;;;;;;;15.85;3.80;;;21.30;99.90;;;;;;4980460;28;20074;-83
2022/05/17 08:30:57;;;;;;;11.15;2.95;;;21.30;99.90;;;;;;4975613;28;20078;-82
2022/05/17 08:33:26;;;;;;;11.73;3.28;;;21.60;99.90;;;;;;4974655;28;20051;-80
2022/05/17 08:35:55;;;;;;;12.38;3.22;;;21.80;99.90;;;;;;4975085;28;20055;-81
2022/05/17 08:38:27;;;;;;;12.00;2.85;;;22.00;99.90;;;;;;4973984;28;20050;-81
2022/05/17 08:41:14;;;;;;;13.32;3.15;;;22.00;99.90;;;;;;4974967;28;20057;-82
2022/05/17 08:43:43;;;;;;;16.63;4.07;;;22.00;99.90;;;;;;4974908;28;20507;-82
2022/05/17 08:46:17;;;;;;;16.45;3.05;;;21.90;99.90;;;;;;4974833;28;20047;-81
2022/05/17 08:48:52;;;;;;;13.90;3.08;;;21.90;99.90;;;;;;4984633;28;20511;-81
2022/05/17 08:51:28;;;;;;;12.60;3.17;;;22.00;99.90;;;;;;4974603;28;20059;-83
2022/05/17 08:53:54;;;;;;;15.98;3.25;;;22.00;99.90;;;;;;4973785;28;20050;-84
2022/05/17 08:56:20;;;;;;;13.95;3.35;;;22.30;99.90;;;;;;4973594;28;20133;-83
2022/05/17 08:58:51;;;;;;;13.02;3.13;;;22.20;99.90;;;;;;4974433;28;20054;-84
2022/05/17 09:01:28;;;;;;;13.43;2.83;;;22.30;99.90;;;;;;4979131;28;20612;-85
2022/05/17 09:04:18;;;;;;;14.70;4.13;;;22.30;99.90;;;;;;4996944;28;20155;-82
2022/05/17 09:06:46;;;;;;;13.23;3.53;;;22.30;99.90;;;;;;4995953;28;20050;-84
2022/05/17 09:09:31;;;;;;;13.65;3.50;;;22.50;99.90;;;;;;4996298;28;20050;-83
2022/05/17 09:12:18;;;;;;;18.58;4.30;;;22.90;99.90;;;;;;4976869;28;20054;-81
2022/05/17 09:14:48;;;;;;;12.15;3.17;;;22.90;99.90;;;;;;4994105;28;20138;-82
2022/05/17 09:17:21;;;;;;;12.18;3.33;;;23.00;99.90;;;;;;4976453;28;20491;-82
2022/05/17 09:19:51;;;;;;;15.50;3.27;;;23.00;99.70;;;;;;4993541;28;20054;-82
2022/05/17 09:22:18;;;;;;;16.65;4.68;;;22.90;99.90;;;;;;4994424;28;20458;-79
2022/05/17 09:24:48;;;;;;;15.18;3.80;;;22.80;99.90;;;;;;4979609;28;20050;-81
2022/05/17 09:27:37;;;;;;;16.42;3.47;;;22.80;99.90;;;;;;4983299;28;20050;-81
2022/05/17 09:30:11;;;;;;;15.85;4.28;;;22.90;99.90;;;;;;4993806;28;20061;-80
2022/05/17 09:32:44;;;;;;;16.52;4.07;;;23.00;99.90;;;;;;4975914;28;20101;-82
2022/05/17 09:35:20;;;;;;;11.10;2.97;;;23.20;99.80;;;;;;4976293;28;20086;-81
2022/05/17 09:37:56;;;;;;;14.75;3.33;;;23.60;99.40;;;;;;4993368;28;20133;-83
2022/05/17 09:40:29;;;;;;;13.20;4.35;;;23.30;99.40;;;;;;4977723;28;20113;-82
2022/05/17 09:42:59;;;;;;;13.35;4.22;;;23.60;98.60;;;;;;4982073;28;20092;-81
2022/05/17 09:45:45;;;;;;;13.75;3.28;;;24.00;98.80;;;;;;4993265;28;20058;-82
2022/05/17 09:48:14;;;;;;;15.77;3.42;;;24.00;97.60;;;;;;4959611;28;20442;-81
2022/05/17 09:53:50;;;;;;;15.55;3.85;;;24.30;97.10;;;;;;4993004;28;20526;-82
2022/05/17 09:56:23;;;;;;;16.03;3.13;;;24.30;97.40;;;;;;4994903;28;20061;-83
2022/05/17 09:58:49;;;;;;;13.75;3.58;;;24.30;97.60;;;;;;4980294;28;20293;-83
2022/05/17 10:01:17;;;;;;;19.73;3.25;;;24.50;97.30;;;;;;4992848;28;20062;-83
2022/05/17 10:04:03;;;;;;;12.73;3.22;;;24.30;97.00;;;;;;4975563;28;20105;-82
2022/05/17 10:06:36;;;;;;;13.93;3.72;;;24.50;97.10;;;;;;4993255;28;20046;-82
2022/05/17 10:09:06;;;;;;;14.65;4.05;;;24.50;96.10;;;;;;4975444;28;20062;-82
2022/05/17 10:11:52;;;;;;;12.80;3.60;;;24.50;96.90;;;;;;4993800;28;20057;-81
2022/05/17 10:14:46;;;;;;;11.95;3.30;;;24.60;97.20;;;;;;4997631;28;20077;-83
2022/05/17 10:17:13;;;;;;;13.95;4.32;;;24.80;96.60;;;;;;4983003;28;20053;-84
2022/05/17 10:19:59;;;;;;;15.15;3.20;;;25.00;96.60;;;;;;4994113;28;20081;-84
2022/05/17 10:22:54;;;;;;;11.93;3.40;;;25.20;96.50;;;;;;4993123;28;20096;-83
2022/05/17 10:25:41;;;;;;;22.02;4.20;;;25.30;95.60;;;;;;4923196;28;20058;-80
2022/05/17 10:28:16;;;;;;;14.38;3.67;;;25.50;94.60;;;;;;4992949;28;20053;-81
2022/05/17 10:31:03;;;;;;;13.10;3.20;;;25.50;94.80;;;;;;4992918;28;20549;-81
2022/05/17 10:33:36;;;;;;;13.98;3.42;;;25.50;94.70;;;;;;4999244;28;20042;-83
2022/05/17 10:36:07;;;;;;;15.43;4.15;;;25.30;94.40;;;;;;4994267;28;20060;-81
2022/05/17 10:38:39;;;;;;;20.13;4.78;;;25.60;94.90;;;;;;4992555;28;20038;-81
2022/05/17 10:41:09;;;;;;;13.60;4.35;;;25.80;93.90;;;;;;4975262;28;20061;-83
2022/05/17 10:43:44;;;;;;;15.52;4.15;;;26.10;94.00;;;;;;4974935;28;20532;-82
2022/05/17 10:46:17;;;;;;;14.32;3.65;;;26.00;92.60;;;;;;4993024;28;20046;-81
2022/05/17 10:48:58;;;;;;;17.60;3.88;;;26.00;92.90;;;;;;4993440;28;20414;-82
2022/05/17 10:51:37;;;;;;;14.02;3.92;;;26.30;92.90;;;;;;4998150;28;20050;-81
2022/05/17 10:54:24;;;;;;;7.20;2.40;;;26.40;90.60;;;;;;4997669;28;20054;-82
2022/05/17 10:57:17;;;;;;;13.50;3.05;;;26.50;89.80;;;;;;4959022;28;20403;-83
2022/05/17 10:59:44;;;;;;;11.55;3.47;;;26.60;88.80;;;;;;4974620;28;20050;-82
2022/05/17 11:02:52;;;;;;;12.27;2.75;;;26.80;90.10;;;;;;4991759;28;20074;-84
2022/05/17 11:05:23;;;;;;;12.57;3.05;;;27.00;88.00;;;;;;4982081;28;20483;-84
2022/05/17 11:08:17;;;;;;;14.90;3.30;;;27.10;86.10;;;;;;4961005;28;20057;-82
2022/05/17 11:10:50;;;;;;;11.02;2.95;;;27.20;86.20;;;;;;4997714;28;20068;-81
2022/05/17 11:13:42;;;;;;;16.73;3.33;;;27.00;87.20;;;;;;4974421;28;20046;-82
2022/05/17 11:16:14;;;;;;;21.27;4.10;;;27.20;83.40;;;;;;4931161;28;20128;-81
2022/05/17 11:18:51;;;;;;;17.48;3.63;;;27.10;85.70;;;;;;4958151;28;20133;-82
2022/05/17 11:21:45;;;;;;;8.85;3.03;;;27.30;83.80;;;;;;4973982;28;20069;-81
2022/05/17 11:24:45;;;;;;;13.77;2.75;;;27.60;80.00;;;;;;4967385;28;20145;-82
2022/05/17 11:27:38;;;;;;;13.60;2.78;;;27.50;77.50;;;;;;4978911;28;20058;-82
2022/05/17 11:30:38;;;;;;;9.57;2.97;;;27.30;81.00;;;;;;4991607;28;20056;-82
2022/05/17 11:33:26;;;;;;;20.27;2.67;;;27.40;77.40;;;;;;4991676;28;20054;-82
2022/05/17 11:36:05;;;;;;;13.23;2.35;;;27.50;78.20;;;;;;4974061;28;20054;-81
2022/05/17 11:38:34;;;;;;;19.48;3.67;;;27.80;80.80;;;;;;4974087;28;20084;-84
2022/05/17 11:41:03;;;;;;;12.55;2.63;;;28.10;76.20;;;;;;4975176;28;20049;-83
2022/05/17 11:43:49;;;;;;;9.95;2.45;;;28.00;78.70;;;;;;4976724;28;20057;-82
2022/05/17 11:46:25;;;;;;;11.73;3.08;;;28.40;75.10;;;;;;4974182;28;20453;-81
2022/05/17 11:48:57;;;;;;;13.77;2.65;;;28.40;75.40;;;;;;4991897;28;20053;-84
2022/05/17 11:51:24;;;;;;;11.55;3.17;;;28.60;72.50;;;;;;4958173;28;20129;-82
2022/05/17 11:53:52;;;;;;;9.35;2.67;;;28.70;72.50;;;;;;4974098;28;20042;-82
2022/05/17 11:56:23;;;;;;;8.98;2.70;;;28.70;71.40;;;;;;4992541;28;20055;-81
2022/05/17 11:58:54;;;;;;;11.30;3.15;;;28.80;70.70;;;;;;4974505;28;20058;-83
2022/05/17 12:01:29;;;;;;;10.98;2.35;;;28.80;67.70;;;;;;4993795;28;20477;-82
2022/05/17 12:04:03;;;;;;;10.20;2.17;;;29.10;65.60;;;;;;4974107;28;20406;-83
2022/05/17 12:06:39;;;;;;;;;;;29.00;64.20;;;;;;4991740;28;20086;-81
2022/05/17 12:09:36;;;;;;;9.70;2.10;;;29.00;63.60;;;;;;4992222;28;19926;-79
2022/05/17 12:12:30;;;;;;;8.85;2.53;;;29.50;61.20;;;;;;4957563;28;20058;-79
2022/05/17 12:15:17;;;;;;;6.73;2.00;;;29.40;58.20;;;;;;4991112;28;20057;-75
2022/05/17 12:17:46;;;;;;;12.27;2.92;;;29.70;57.00;;;;;;4991745;28;20521;-79
2022/05/17 12:20:33;;;;;;;11.07;2.45;;;29.30;58.00;;;;;;4993621;28;20050;-77
2022/05/17 12:23:26;;;;;;;10.73;2.20;;;29.40;54.10;;;;;;4993403;28;20046;-75
2022/05/17 12:26:00;;;;;;;9.68;2.03;;;29.30;56.80;;;;;;4974157;28;20050;-78
2022/05/17 12:28:41;;;;;;;6.63;1.90;;;29.20;55.00;;;;;;4957617;28;20453;-79
2022/05/17 12:31:10;;;;;;;10.55;2.63;;;29.50;55.10;;;;;;4991321;28;20180;-86
2022/05/17 12:33:42;;;;;;;9.20;2.30;;;29.30;53.40;;;;;;4991506;28;20059;-78
2022/05/17 12:36:18;;;;;;;6.55;1.90;;;29.30;53.50;;;;;;4998873;28;20525;-92
2022/05/17 12:44:39;;;;;;;10.40;1.73;;;29.60;52.70;;;;;;4995218;28;20065;-87
2022/05/17 12:47:11;;;;;;;8.60;2.05;;;29.90;51.30;;;;;;4977997;28;20062;-85
2022/05/17 12:49:41;;;;;;;10.07;2.20;;;29.90;50.70;;;;;;4997952;28;20046;-82
2022/05/17 12:52:35;;;;;;;10.10;2.47;;;29.70;50.20;;;;;;4998335;28;20090;-79
2022/05/17 12:55:07;;;;;;;9.40;2.40;;;30.00;51.90;;;;;;4991315;28;20533;-84
2022/05/17 12:57:38;;;;;;;8.45;2.30;;;30.30;52.20;;;;;;4977727;28;20571;-79
2022/05/17 13:00:30;;;;;;;9.10;2.13;;;30.70;50.70;;;;;;4994270;28;20062;-80
2022/05/17 13:03:14;;;;;;;11.07;1.85;;;30.70;49.90;;;;;;4986477;28;20532;-84
2022/05/17 13:05:48;;;;;;;7.17;1.67;;;30.60;49.00;;;;;;4996440;28;20050;-82
2022/05/17 13:08:38;;;;;;;7.00;1.95;;;30.80;49.50;;;;;;4996073;28;20058;-86